sensor_id;sensor_type;location;lat;lon;timestamp;P1;durP1;ratioP1;P2;durP2;ratioP2
72284;SDS011;60220;53.552;10.092;2022-07-04T00:01:19;5.78;;;2.10;;
72284;SDS011;60220;53.552;10.092;2022-07-04T00:03:45;6.15;;;2.35;;
72284;SDS011;60220;53.552;10.092;2022-07-04T00:06:13;7.93;;;1.92;;
72284;SDS011;60220;53.552;10.092;2022-07-04T00:08:38;4.85;;;2.10;;
72284;SDS011;60220;53.552;10.092;2022-07-04T00:11:07;3.72;;;1.88;;
72284;SDS011;60220;53.552;10.092;2022-07-04T00:13:37;4.97;;;1.85;;
72284;SDS011;60220;53.552;10.092;2022-07-04T00:16:02;4.40;;;1.80;;
72284;SDS011;60220;53.552;10.092;2022-07-04T00:18:28;8.65;;;3.00;;
72284;SDS011;60220;53.552;10.092;2022-07-04T00:20:53;6.15;;;2.40;;
72284;SDS011;60220;53.552;10.092;2022-07-04T00:23:19;3.60;;;2.28;;
72284;SDS011;60220;53.552;10.092;2022-07-04T00:25:49;2.70;;;1.95;;
72284;SDS011;60220;53.552;10.092;2022-07-04T00:28:14;7.45;;;2.60;;
72284;SDS011;60220;53.552;10.092;2022-07-04T00:30:40;5.88;;;2.25;;
72284;SDS011;60220;53.552;10.092;2022-07-04T00:33:06;3.22;;;1.95;;
72284;SDS011;60220;53.552;10.092;2022-07-04T00:35:35;5.03;;;2.00;;
72284;SDS011;60220;53.552;10.092;2022-07-04T00:38:02;5.53;;;2.58;;
72284;SDS011;60220;53.552;10.092;2022-07-04T00:40:33;5.95;;;3.28;;
72284;SDS011;60220;53.552;10.092;2022-07-04T00:43:02;7.35;;;2.47;;
72284;SDS011;60220;53.552;10.092;2022-07-04T00:45:29;6.15;;;2.70;;
72284;SDS011;60220;53.552;10.092;2022-07-04T00:48:05;7.18;;;2.80;;
72284;SDS011;60220;53.552;10.092;2022-07-04T00:50:31;7.00;;;2.72;;
72284;SDS011;60220;53.552;10.092;2022-07-04T00:52:56;7.72;;;2.67;;
72284;SDS011;60220;53.552;10.092;2022-07-04T00:55:22;3.88;;;2.40;;
72284;SDS011;60220;53.552;10.092;2022-07-04T00:57:50;8.13;;;2.47;;
72284;SDS011;60220;53.552;10.092;2022-07-04T01:00:18;4.07;;;2.38;;
72284;SDS011;60220;53.552;10.092;2022-07-04T01:02:44;6.10;;;3.33;;
72284;SDS011;60220;53.552;10.092;2022-07-04T01:05:13;12.00;;;3.47;;
72284;SDS011;60220;53.552;10.092;2022-07-04T01:07:40;7.78;;;3.50;;
72284;SDS011;60220;53.552;10.092;2022-07-04T01:10:06;8.15;;;3.55;;
72284;SDS011;60220;53.552;10.092;2022-07-04T01:12:32;9.30;;;3.72;;
72284;SDS011;60220;53.552;10.092;2022-07-04T01:15:00;6.40;;;3.78;;
72284;SDS011;60220;53.552;10.092;2022-07-04T01:17:28;8.90;;;3.47;;
72284;SDS011;60220;53.552;10.092;2022-07-04T01:19:53;12.48;;;3.90;;
72284;SDS011;60220;53.552;10.092;2022-07-04T01:22:19;5.85;;;3.58;;
72284;SDS011;60220;53.552;10.092;2022-07-04T01:24:49;8.10;;;4.13;;
72284;SDS011;60220;53.552;10.092;2022-07-04T01:27:15;10.00;;;4.10;;
72284;SDS011;60220;53.552;10.092;2022-07-04T01:29:41;8.45;;;3.95;;
72284;SDS011;60220;53.552;10.092;2022-07-04T01:32:07;6.35;;;3.80;;
72284;SDS011;60220;53.552;10.092;2022-07-04T01:34:33;10.50;;;4.40;;
72284;SDS011;60220;53.552;10.092;2022-07-04T01:37:04;9.48;;;4.55;;
72284;SDS011;60220;53.552;10.092;2022-07-04T01:39:32;11.07;;;5.35;;
72284;SDS011;60220;53.552;10.092;2022-07-04T01:41:57;12.55;;;5.60;;
72284;SDS011;60220;53.552;10.092;2022-07-04T01:44:23;10.43;;;5.35;;
72284;SDS011;60220;53.552;10.092;2022-07-04T01:46:50;8.07;;;5.75;;
72284;SDS011;60220;53.552;10.092;2022-07-04T01:49:16;12.77;;;5.82;;
72284;SDS011;60220;53.552;10.092;2022-07-04T01:51:47;12.00;;;5.30;;
72284;SDS011;60220;53.552;10.092;2022-07-04T01:54:16;8.80;;;5.70;;
72284;SDS011;60220;53.552;10.092;2022-07-04T01:56:42;12.85;;;6.22;;
72284;SDS011;60220;53.552;10.092;2022-07-04T01:59:08;12.57;;;6.32;;
72284;SDS011;60220;53.552;10.092;2022-07-04T02:04:16;11.25;;;6.35;;
72284;SDS011;60220;53.552;10.092;2022-07-04T02:06:41;8.85;;;5.00;;
72284;SDS011;60220;53.552;10.092;2022-07-04T02:09:06;8.05;;;5.43;;
72284;SDS011;60220;53.552;10.092;2022-07-04T02:11:41;9.35;;;5.55;;
72284;SDS011;60220;53.552;10.092;2022-07-04T02:14:29;10.13;;;5.97;;
72284;SDS011;60220;53.552;10.092;2022-07-04T02:16:58;10.30;;;6.47;;
72284;SDS011;60220;53.552;10.092;2022-07-04T02:19:24;10.05;;;5.78;;
72284;SDS011;60220;53.552;10.092;2022-07-04T02:21:50;8.23;;;5.88;;
72284;SDS011;60220;53.552;10.092;2022-07-04T02:24:16;11.73;;;6.13;;
72284;SDS011;60220;53.552;10.092;2022-07-04T02:26:45;9.60;;;6.85;;
72284;SDS011;60220;53.552;10.092;2022-07-04T02:29:10;14.25;;;7.18;;
72284;SDS011;60220;53.552;10.092;2022-07-04T02:31:36;12.95;;;7.07;;
72284;SDS011;60220;53.552;10.092;2022-07-04T02:34:01;12.05;;;7.50;;
72284;SDS011;60220;53.552;10.092;2022-07-04T02:36:29;13.90;;;8.05;;
72284;SDS011;60220;53.552;10.092;2022-07-04T02:38:54;16.35;;;10.00;;
72284;SDS011;60220;53.552;10.092;2022-07-04T02:41:20;10.05;;;6.45;;
72284;SDS011;60220;53.552;10.092;2022-07-04T02:43:45;9.98;;;5.32;;
72284;SDS011;60220;53.552;10.092;2022-07-04T02:46:11;8.88;;;5.93;;
72284;SDS011;60220;53.552;10.092;2022-07-04T02:48:41;7.45;;;5.40;;
72284;SDS011;60220;53.552;10.092;2022-07-04T02:51:09;7.65;;;5.55;;
72284;SDS011;60220;53.552;10.092;2022-07-04T02:53:37;12.35;;;7.50;;
72284;SDS011;60220;53.552;10.092;2022-07-04T02:56:04;12.48;;;6.85;;
72284;SDS011;60220;53.552;10.092;2022-07-04T02:58:31;15.23;;;5.80;;
72284;SDS011;60220;53.552;10.092;2022-07-04T03:00:57;8.27;;;5.10;;
72284;SDS011;60220;53.552;10.092;2022-07-04T03:03:27;9.90;;;4.82;;
72284;SDS011;60220;53.552;10.092;2022-07-04T03:05:52;9.68;;;4.85;;
72284;SDS011;60220;53.552;10.092;2022-07-04T03:08:18;8.48;;;4.40;;
72284;SDS011;60220;53.552;10.092;2022-07-04T03:10:48;7.40;;;4.20;;
72284;SDS011;60220;53.552;10.092;2022-07-04T03:13:15;12.82;;;6.43;;
72284;SDS011;60220;53.552;10.092;2022-07-04T03:15:40;16.17;;;10.95;;
72284;SDS011;60220;53.552;10.092;2022-07-04T03:18:06;11.90;;;6.80;;
72284;SDS011;60220;53.552;10.092;2022-07-04T03:20:31;14.05;;;5.25;;
72284;SDS011;60220;53.552;10.092;2022-07-04T03:22:59;9.02;;;4.57;;
72284;SDS011;60220;53.552;10.092;2022-07-04T03:25:25;18.30;;;11.65;;
72284;SDS011;60220;53.552;10.092;2022-07-04T03:27:50;8.95;;;7.05;;
72284;SDS011;60220;53.552;10.092;2022-07-04T03:30:15;21.67;;;12.80;;
72284;SDS011;60220;53.552;10.092;2022-07-04T03:32:41;19.35;;;14.02;;
72284;SDS011;60220;53.552;10.092;2022-07-04T03:35:06;10.93;;;4.47;;
72284;SDS011;60220;53.552;10.092;2022-07-04T03:37:37;9.48;;;4.88;;
72284;SDS011;60220;53.552;10.092;2022-07-04T03:40:02;6.55;;;4.18;;
72284;SDS011;60220;53.552;10.092;2022-07-04T03:42:30;8.30;;;4.32;;
72284;SDS011;60220;53.552;10.092;2022-07-04T03:44:56;10.75;;;4.90;;
72284;SDS011;60220;53.552;10.092;2022-07-04T03:47:23;6.85;;;4.28;;
72284;SDS011;60220;53.552;10.092;2022-07-04T03:49:49;10.35;;;4.97;;
72284;SDS011;60220;53.552;10.092;2022-07-04T03:52:14;11.25;;;5.13;;
72284;SDS011;60220;53.552;10.092;2022-07-04T03:54:44;12.10;;;5.32;;
72284;SDS011;60220;53.552;10.092;2022-07-04T03:57:10;8.57;;;5.80;;
72284;SDS011;60220;53.552;10.092;2022-07-04T03:59:37;7.93;;;5.63;;
72284;SDS011;60220;53.552;10.092;2022-07-04T04:02:03;10.73;;;5.10;;
72284;SDS011;60220;53.552;10.092;2022-07-04T04:04:29;10.13;;;5.25;;
72284;SDS011;60220;53.552;10.092;2022-07-04T04:07:12;7.80;;;5.47;;
72284;SDS011;60220;53.552;10.092;2022-07-04T04:09:40;8.30;;;5.70;;
72284;SDS011;60220;53.552;10.092;2022-07-04T04:12:06;10.70;;;6.32;;
72284;SDS011;60220;53.552;10.092;2022-07-04T04:14:34;9.23;;;6.25;;
72284;SDS011;60220;53.552;10.092;2022-07-04T04:17:00;8.88;;;5.95;;
72284;SDS011;60220;53.552;10.092;2022-07-04T04:19:25;10.95;;;6.20;;
72284;SDS011;60220;53.552;10.092;2022-07-04T04:21:55;8.15;;;5.70;;
72284;SDS011;60220;53.552;10.092;2022-07-04T04:24:20;7.50;;;5.55;;
72284;SDS011;60220;53.552;10.092;2022-07-04T04:26:49;9.48;;;5.95;;
72284;SDS011;60220;53.552;10.092;2022-07-04T04:29:17;9.68;;;5.43;;
72284;SDS011;60220;53.552;10.092;2022-07-04T04:31:42;7.57;;;4.40;;
72284;SDS011;60220;53.552;10.092;2022-07-04T04:34:13;9.32;;;5.30;;
72284;SDS011;60220;53.552;10.092;2022-07-04T04:36:40;8.45;;;5.25;;
72284;SDS011;60220;53.552;10.092;2022-07-04T04:39:05;9.00;;;5.07;;
72284;SDS011;60220;53.552;10.092;2022-07-04T04:41:33;8.70;;;4.65;;
72284;SDS011;60220;53.552;10.092;2022-07-04T04:43:58;9.25;;;5.10;;
72284;SDS011;60220;53.552;10.092;2022-07-04T04:46:24;9.10;;;5.18;;
72284;SDS011;60220;53.552;10.092;2022-07-04T04:48:52;12.23;;;5.53;;
72284;SDS011;60220;53.552;10.092;2022-07-04T04:51:20;6.47;;;4.90;;
72284;SDS011;60220;53.552;10.092;2022-07-04T04:53:46;14.88;;;6.13;;
72284;SDS011;60220;53.552;10.092;2022-07-04T04:56:11;9.30;;;5.43;;
72284;SDS011;60220;53.552;10.092;2022-07-04T04:58:36;9.27;;;5.05;;
72284;SDS011;60220;53.552;10.092;2022-07-04T05:01:05;10.32;;;5.70;;
72284;SDS011;60220;53.552;10.092;2022-07-04T05:03:33;11.18;;;5.65;;
72284;SDS011;60220;53.552;10.092;2022-07-04T05:06:04;12.55;;;5.35;;
72284;SDS011;60220;53.552;10.092;2022-07-04T05:08:29;9.07;;;4.97;;
72284;SDS011;60220;53.552;10.092;2022-07-04T05:10:57;9.98;;;4.82;;
72284;SDS011;60220;53.552;10.092;2022-07-04T05:13:22;7.85;;;3.80;;
72284;SDS011;60220;53.552;10.092;2022-07-04T05:15:48;11.57;;;4.25;;
72284;SDS011;60220;53.552;10.092;2022-07-04T05:18:16;6.93;;;3.80;;
72284;SDS011;60220;53.552;10.092;2022-07-04T05:20:46;8.20;;;3.83;;
72284;SDS011;60220;53.552;10.092;2022-07-04T05:23:12;10.25;;;4.70;;
72284;SDS011;60220;53.552;10.092;2022-07-04T05:25:37;7.57;;;3.33;;
72284;SDS011;60220;53.552;10.092;2022-07-04T05:28:03;7.93;;;3.85;;
72284;SDS011;60220;53.552;10.092;2022-07-04T05:30:28;7.20;;;4.40;;
72284;SDS011;60220;53.552;10.092;2022-07-04T05:32:54;8.27;;;3.50;;
72284;SDS011;60220;53.552;10.092;2022-07-04T05:35:19;5.03;;;2.85;;
72284;SDS011;60220;53.552;10.092;2022-07-04T05:37:44;4.80;;;2.55;;
72284;SDS011;60220;53.552;10.092;2022-07-04T05:40:12;7.80;;;3.13;;
72284;SDS011;60220;53.552;10.092;2022-07-04T05:42:38;5.22;;;2.17;;
72284;SDS011;60220;53.552;10.092;2022-07-04T05:45:05;3.28;;;2.08;;
72284;SDS011;60220;53.552;10.092;2022-07-04T05:47:34;6.07;;;2.05;;
72284;SDS011;60220;53.552;10.092;2022-07-04T05:50:00;5.05;;;1.70;;
72284;SDS011;60220;53.552;10.092;2022-07-04T05:52:26;7.35;;;2.10;;
72284;SDS011;60220;53.552;10.092;2022-07-04T05:54:51;4.32;;;1.90;;
72284;SDS011;60220;53.552;10.092;2022-07-04T05:57:17;2.20;;;1.67;;
72284;SDS011;60220;53.552;10.092;2022-07-04T05:59:45;4.28;;;2.40;;
72284;SDS011;60220;53.552;10.092;2022-07-04T06:02:12;4.10;;;1.88;;
72284;SDS011;60220;53.552;10.092;2022-07-04T06:04:39;3.20;;;1.60;;
72284;SDS011;60220;53.552;10.092;2022-07-04T06:07:05;4.35;;;2.05;;
72284;SDS011;60220;53.552;10.092;2022-07-04T06:09:30;4.00;;;1.70;;
72284;SDS011;60220;53.552;10.092;2022-07-04T06:11:58;4.22;;;1.60;;
72284;SDS011;60220;53.552;10.092;2022-07-04T06:14:24;5.55;;;1.65;;
72284;SDS011;60220;53.552;10.092;2022-07-04T06:16:52;4.05;;;2.05;;
72284;SDS011;60220;53.552;10.092;2022-07-04T06:19:17;5.28;;;1.92;;
72284;SDS011;60220;53.552;10.092;2022-07-04T06:21:42;7.40;;;1.70;;
72284;SDS011;60220;53.552;10.092;2022-07-04T06:24:08;5.22;;;1.77;;
72284;SDS011;60220;53.552;10.092;2022-07-04T06:26:35;5.38;;;1.42;;
72284;SDS011;60220;53.552;10.092;2022-07-04T06:29:03;2.97;;;1.17;;
72284;SDS011;60220;53.552;10.092;2022-07-04T06:31:29;4.75;;;1.80;;
72284;SDS011;60220;53.552;10.092;2022-07-04T06:33:54;7.45;;;1.30;;
72284;SDS011;60220;53.552;10.092;2022-07-04T06:36:38;6.75;;;1.38;;
72284;SDS011;60220;53.552;10.092;2022-07-04T06:39:06;5.78;;;1.42;;
72284;SDS011;60220;53.552;10.092;2022-07-04T06:41:31;4.47;;;1.70;;
72284;SDS011;60220;53.552;10.092;2022-07-04T06:43:57;5.50;;;1.60;;
72284;SDS011;60220;53.552;10.092;2022-07-04T06:46:24;4.00;;;1.27;;
72284;SDS011;60220;53.552;10.092;2022-07-04T06:48:50;6.97;;;1.77;;
72284;SDS011;60220;53.552;10.092;2022-07-04T06:51:15;5.25;;;1.08;;
72284;SDS011;60220;53.552;10.092;2022-07-04T06:53:41;2.53;;;1.20;;
72284;SDS011;60220;53.552;10.092;2022-07-04T06:56:07;4.88;;;1.45;;
72284;SDS011;60220;53.552;10.092;2022-07-04T06:58:39;8.32;;;1.65;;
72284;SDS011;60220;53.552;10.092;2022-07-04T07:01:04;2.55;;;1.40;;
72284;SDS011;60220;53.552;10.092;2022-07-04T07:03:30;5.38;;;1.58;;
72284;SDS011;60220;53.552;10.092;2022-07-04T07:05:57;3.40;;;1.35;;
72284;SDS011;60220;53.552;10.092;2022-07-04T07:08:23;3.65;;;1.40;;
72284;SDS011;60220;53.552;10.092;2022-07-04T07:10:49;4.82;;;1.27;;
72284;SDS011;60220;53.552;10.092;2022-07-04T07:13:14;2.13;;;1.27;;
72284;SDS011;60220;53.552;10.092;2022-07-04T07:15:40;3.20;;;1.20;;
72284;SDS011;60220;53.552;10.092;2022-07-04T07:18:05;7.03;;;1.40;;
72284;SDS011;60220;53.552;10.092;2022-07-04T07:20:36;4.50;;;1.23;;
72284;SDS011;60220;53.552;10.092;2022-07-04T07:23:08;5.53;;;1.10;;
72284;SDS011;60220;53.552;10.092;2022-07-04T07:25:36;3.25;;;1.23;;
72284;SDS011;60220;53.552;10.092;2022-07-04T07:28:04;4.53;;;1.20;;
72284;SDS011;60220;53.552;10.092;2022-07-04T07:30:29;4.82;;;1.02;;
72284;SDS011;60220;53.552;10.092;2022-07-04T07:32:55;2.33;;;0.85;;
72284;SDS011;60220;53.552;10.092;2022-07-04T07:35:20;2.42;;;0.80;;
72284;SDS011;60220;53.552;10.092;2022-07-04T07:37:49;4.40;;;1.63;;
72284;SDS011;60220;53.552;10.092;2022-07-04T07:40:14;1.02;;;0.77;;
72284;SDS011;60220;53.552;10.092;2022-07-04T07:42:39;4.38;;;0.95;;
72284;SDS011;60220;53.552;10.092;2022-07-04T07:45:05;3.35;;;1.13;;
72284;SDS011;60220;53.552;10.092;2022-07-04T07:47:31;6.07;;;1.17;;
72284;SDS011;60220;53.552;10.092;2022-07-04T07:49:56;5.47;;;0.95;;
72284;SDS011;60220;53.552;10.092;2022-07-04T07:52:22;2.72;;;0.77;;
72284;SDS011;60220;53.552;10.092;2022-07-04T07:54:47;3.28;;;0.93;;
72284;SDS011;60220;53.552;10.092;2022-07-04T07:57:15;4.78;;;0.85;;
72284;SDS011;60220;53.552;10.092;2022-07-04T07:59:43;2.45;;;0.75;;
72284;SDS011;60220;53.552;10.092;2022-07-04T08:02:11;4.22;;;1.20;;
72284;SDS011;60220;53.552;10.092;2022-07-04T08:04:36;2.30;;;1.20;;
72284;SDS011;60220;53.552;10.092;2022-07-04T08:07:09;1.20;;;0.75;;
72284;SDS011;60220;53.552;10.092;2022-07-04T08:09:37;3.80;;;0.98;;
72284;SDS011;60220;53.552;10.092;2022-07-04T08:12:03;3.03;;;0.80;;
72284;SDS011;60220;53.552;10.092;2022-07-04T08:14:31;1.77;;;0.70;;
72284;SDS011;60220;53.552;10.092;2022-07-04T08:16:58;2.63;;;1.20;;
72284;SDS011;60220;53.552;10.092;2022-07-04T08:19:24;2.83;;;1.15;;
72284;SDS011;60220;53.552;10.092;2022-07-04T08:21:53;12.25;;;1.45;;
72284;SDS011;60220;53.552;10.092;2022-07-04T08:24:19;3.75;;;0.90;;
72284;SDS011;60220;53.552;10.092;2022-07-04T08:26:47;3.30;;;0.82;;
72284;SDS011;60220;53.552;10.092;2022-07-04T08:29:15;2.25;;;0.50;;
72284;SDS011;60220;53.552;10.092;2022-07-04T08:31:43;4.50;;;1.02;;
72284;SDS011;60220;53.552;10.092;2022-07-04T08:34:09;6.72;;;1.08;;
72284;SDS011;60220;53.552;10.092;2022-07-04T08:36:34;3.78;;;1.35;;
72284;SDS011;60220;53.552;10.092;2022-07-04T08:39:00;3.50;;;0.80;;
72284;SDS011;60220;53.552;10.092;2022-07-04T08:41:25;2.25;;;0.73;;
72284;SDS011;60220;53.552;10.092;2022-07-04T08:43:53;3.50;;;0.85;;
72284;SDS011;60220;53.552;10.092;2022-07-04T08:46:21;1.45;;;0.60;;
72284;SDS011;60220;53.552;10.092;2022-07-04T08:48:52;2.47;;;0.90;;
72284;SDS011;60220;53.552;10.092;2022-07-04T08:51:29;2.50;;;0.80;;
72284;SDS011;60220;53.552;10.092;2022-07-04T08:54:18;2.50;;;0.90;;
72284;SDS011;60220;53.552;10.092;2022-07-04T08:57:03;3.25;;;0.90;;
72284;SDS011;60220;53.552;10.092;2022-07-04T08:59:48;2.22;;;0.73;;
72284;SDS011;60220;53.552;10.092;2022-07-04T09:02:17;3.65;;;0.88;;
72284;SDS011;60220;53.552;10.092;2022-07-04T09:04:46;2.78;;;1.13;;
72284;SDS011;60220;53.552;10.092;2022-07-04T09:07:12;3.55;;;0.80;;
72284;SDS011;60220;53.552;10.092;2022-07-04T09:09:39;4.28;;;1.10;;
72284;SDS011;60220;53.552;10.092;2022-07-04T09:12:08;3.20;;;0.90;;
72284;SDS011;60220;53.552;10.092;2022-07-04T09:14:37;2.28;;;0.77;;
72284;SDS011;60220;53.552;10.092;2022-07-04T09:17:03;2.10;;;0.73;;
72284;SDS011;60220;53.552;10.092;2022-07-04T09:19:29;4.43;;;0.90;;
72284;SDS011;60220;53.552;10.092;2022-07-04T09:21:55;11.07;;;4.80;;
72284;SDS011;60220;53.552;10.092;2022-07-04T09:30:01;3.15;;;0.98;;
72284;SDS011;60220;53.552;10.092;2022-07-04T09:32:44;2.70;;;1.02;;
72284;SDS011;60220;53.552;10.092;2022-07-04T09:35:24;4.00;;;1.55;;
72284;SDS011;60220;53.552;10.092;2022-07-04T09:37:53;1.98;;;0.80;;
72284;SDS011;60220;53.552;10.092;2022-07-04T09:42:56;3.15;;;0.60;;
72284;SDS011;60220;53.552;10.092;2022-07-04T09:45:26;1.27;;;0.40;;
72284;SDS011;60220;53.552;10.092;2022-07-04T09:47:54;1.95;;;0.65;;
72284;SDS011;60220;53.552;10.092;2022-07-04T09:50:23;1.75;;;0.80;;
72284;SDS011;60220;53.552;10.092;2022-07-04T09:52:58;1.77;;;0.60;;
72284;SDS011;60220;53.552;10.092;2022-07-04T09:55:29;3.13;;;0.43;;
72284;SDS011;60220;53.552;10.092;2022-07-04T09:58:02;3.47;;;0.80;;
72284;SDS011;60220;53.552;10.092;2022-07-04T10:00:32;2.00;;;0.63;;
72284;SDS011;60220;53.552;10.092;2022-07-04T10:05:46;2.90;;;0.75;;
72284;SDS011;60220;53.552;10.092;2022-07-04T10:08:13;2.42;;;0.50;;
72284;SDS011;60220;53.552;10.092;2022-07-04T10:10:39;1.65;;;0.50;;
72284;SDS011;60220;53.552;10.092;2022-07-04T10:13:06;3.67;;;0.98;;
72284;SDS011;60220;53.552;10.092;2022-07-04T10:15:36;2.35;;;1.00;;
72284;SDS011;60220;53.552;10.092;2022-07-04T10:18:04;1.15;;;0.43;;
72284;SDS011;60220;53.552;10.092;2022-07-04T10:20:32;2.80;;;0.70;;
72284;SDS011;60220;53.552;10.092;2022-07-04T10:22:58;3.13;;;0.70;;
72284;SDS011;60220;53.552;10.092;2022-07-04T10:25:27;2.42;;;0.88;;
72284;SDS011;60220;53.552;10.092;2022-07-04T10:27:56;4.22;;;1.35;;
72284;SDS011;60220;53.552;10.092;2022-07-04T10:30:23;3.30;;;0.98;;
72284;SDS011;60220;53.552;10.092;2022-07-04T10:32:57;2.72;;;0.50;;
72284;SDS011;60220;53.552;10.092;2022-07-04T10:38:16;1.73;;;0.40;;
72284;SDS011;60220;53.552;10.092;2022-07-04T10:45:55;2.83;;;0.43;;
72284;SDS011;60220;53.552;10.092;2022-07-04T10:48:23;1.83;;;0.52;;
72284;SDS011;60220;53.552;10.092;2022-07-04T10:51:02;0.90;;;0.70;;
72284;SDS011;60220;53.552;10.092;2022-07-04T10:53:29;1.17;;;0.52;;
72284;SDS011;60220;53.552;10.092;2022-07-04T10:58:54;2.15;;;0.60;;
72284;SDS011;60220;53.552;10.092;2022-07-04T11:01:24;2.22;;;0.70;;
72284;SDS011;60220;53.552;10.092;2022-07-04T11:03:53;2.63;;;0.77;;
72284;SDS011;60220;53.552;10.092;2022-07-04T11:09:16;3.10;;;0.60;;
72284;SDS011;60220;53.552;10.092;2022-07-04T11:11:56;3.00;;;0.63;;
72284;SDS011;60220;53.552;10.092;2022-07-04T11:14:45;2.55;;;0.57;;
72284;SDS011;60220;53.552;10.092;2022-07-04T11:17:14;1.95;;;0.52;;
72284;SDS011;60220;53.552;10.092;2022-07-04T11:19:44;1.45;;;0.35;;
72284;SDS011;60220;53.552;10.092;2022-07-04T11:22:14;2.15;;;0.88;;
72284;SDS011;60220;53.552;10.092;2022-07-04T11:24:47;1.00;;;0.40;;
72284;SDS011;60220;53.552;10.092;2022-07-04T11:27:13;3.58;;;0.47;;
72284;SDS011;60220;53.552;10.092;2022-07-04T11:29:53;2.60;;;0.70;;
72284;SDS011;60220;53.552;10.092;2022-07-04T11:32:21;3.17;;;1.17;;
72284;SDS011;60220;53.552;10.092;2022-07-04T11:34:56;4.90;;;0.90;;
72284;SDS011;60220;53.552;10.092;2022-07-04T11:37:21;1.88;;;0.60;;
72284;SDS011;60220;53.552;10.092;2022-07-04T11:39:53;2.53;;;0.77;;
72284;SDS011;60220;53.552;10.092;2022-07-04T11:42:38;3.70;;;1.20;;
72284;SDS011;60220;53.552;10.092;2022-07-04T11:45:42;2.03;;;0.90;;
72284;SDS011;60220;53.552;10.092;2022-07-04T11:48:10;6.93;;;0.80;;
72284;SDS011;60220;53.552;10.092;2022-07-04T11:50:35;2.70;;;0.52;;
72284;SDS011;60220;53.552;10.092;2022-07-04T11:53:01;6.38;;;1.52;;
72284;SDS011;60220;53.552;10.092;2022-07-04T11:55:32;8.27;;;0.75;;
72284;SDS011;60220;53.552;10.092;2022-07-04T11:58:00;4.40;;;0.73;;
72284;SDS011;60220;53.552;10.092;2022-07-04T12:00:26;1.98;;;0.80;;
72284;SDS011;60220;53.552;10.092;2022-07-04T12:02:58;2.85;;;0.82;;
72284;SDS011;60220;53.552;10.092;2022-07-04T12:05:24;5.80;;;1.05;;
72284;SDS011;60220;53.552;10.092;2022-07-04T12:07:52;6.05;;;0.95;;
72284;SDS011;60220;53.552;10.092;2022-07-04T12:10:24;5.30;;;0.82;;
72284;SDS011;60220;53.552;10.092;2022-07-04T12:15:18;1.08;;;0.60;;
72284;SDS011;60220;53.552;10.092;2022-07-04T12:17:53;1.80;;;0.90;;
72284;SDS011;60220;53.552;10.092;2022-07-04T12:20:23;4.47;;;0.63;;
72284;SDS011;60220;53.552;10.092;2022-07-04T12:22:53;3.95;;;1.00;;
72284;SDS011;60220;53.552;10.092;2022-07-04T12:28:03;3.90;;;0.73;;
72284;SDS011;60220;53.552;10.092;2022-07-04T12:30:39;13.98;;;1.50;;
72284;SDS011;60220;53.552;10.092;2022-07-04T12:33:13;6.30;;;3.05;;
72284;SDS011;60220;53.552;10.092;2022-07-04T12:35:48;1.00;;;0.60;;
72284;SDS011;60220;53.552;10.092;2022-07-04T12:38:39;3.80;;;0.82;;
72284;SDS011;60220;53.552;10.092;2022-07-04T12:41:11;3.28;;;0.60;;
72284;SDS011;60220;53.552;10.092;2022-07-04T12:46:25;2.03;;;0.70;;
72284;SDS011;60220;53.552;10.092;2022-07-04T12:48:59;4.40;;;1.02;;
72284;SDS011;60220;53.552;10.092;2022-07-04T12:51:30;6.43;;;1.58;;
72284;SDS011;60220;53.552;10.092;2022-07-04T12:53:57;6.53;;;3.83;;
72284;SDS011;60220;53.552;10.092;2022-07-04T12:56:31;6.38;;;0.90;;
72284;SDS011;60220;53.552;10.092;2022-07-04T12:59:01;4.90;;;1.38;;
72284;SDS011;60220;53.552;10.092;2022-07-04T13:01:28;2.80;;;0.90;;
72284;SDS011;60220;53.552;10.092;2022-07-04T13:03:57;4.72;;;1.65;;
72284;SDS011;60220;53.552;10.092;2022-07-04T13:06:23;1.70;;;0.60;;
72284;SDS011;60220;53.552;10.092;2022-07-04T13:08:49;2.90;;;0.82;;
72284;SDS011;60220;53.552;10.092;2022-07-04T13:11:14;3.95;;;1.20;;
72284;SDS011;60220;53.552;10.092;2022-07-04T13:14:01;20.17;;;1.60;;
72284;SDS011;60220;53.552;10.092;2022-07-04T13:16:29;10.73;;;1.65;;
72284;SDS011;60220;53.552;10.092;2022-07-04T13:18:54;4.82;;;1.23;;
72284;SDS011;60220;53.552;10.092;2022-07-04T13:21:20;7.38;;;4.13;;
72284;SDS011;60220;53.552;10.092;2022-07-04T13:23:48;12.68;;;8.05;;
72284;SDS011;60220;53.552;10.092;2022-07-04T13:26:14;3.28;;;0.80;;
72284;SDS011;60220;53.552;10.092;2022-07-04T13:28:40;11.93;;;5.65;;
72284;SDS011;60220;53.552;10.092;2022-07-04T13:31:06;1.38;;;0.80;;
72284;SDS011;60220;53.552;10.092;2022-07-04T13:33:32;4.57;;;1.05;;
72284;SDS011;60220;53.552;10.092;2022-07-04T13:35:57;3.67;;;0.80;;
72284;SDS011;60220;53.552;10.092;2022-07-04T13:38:23;3.65;;;1.20;;
72284;SDS011;60220;53.552;10.092;2022-07-04T13:40:54;0.85;;;0.63;;
72284;SDS011;60220;53.552;10.092;2022-07-04T13:43:24;3.00;;;0.90;;
72284;SDS011;60220;53.552;10.092;2022-07-04T13:45:53;1.42;;;0.50;;
72284;SDS011;60220;53.552;10.092;2022-07-04T13:48:19;1.70;;;0.82;;
72284;SDS011;60220;53.552;10.092;2022-07-04T13:50:45;3.78;;;1.45;;
72284;SDS011;60220;53.552;10.092;2022-07-04T13:53:10;6.47;;;3.22;;
72284;SDS011;60220;53.552;10.092;2022-07-04T13:55:38;3.97;;;1.80;;
72284;SDS011;60220;53.552;10.092;2022-07-04T13:58:06;4.50;;;1.05;;
72284;SDS011;60220;53.552;10.092;2022-07-04T14:00:35;4.47;;;2.30;;
72284;SDS011;60220;53.552;10.092;2022-07-04T14:03:01;7.93;;;3.75;;
72284;SDS011;60220;53.552;10.092;2022-07-04T14:05:29;4.25;;;0.93;;
72284;SDS011;60220;53.552;10.092;2022-07-04T14:07:56;5.43;;;1.17;;
72284;SDS011;60220;53.552;10.092;2022-07-04T14:10:21;2.72;;;0.95;;
72284;SDS011;60220;53.552;10.092;2022-07-04T14:12:50;1.40;;;0.70;;
72284;SDS011;60220;53.552;10.092;2022-07-04T14:15:15;4.35;;;0.80;;
72284;SDS011;60220;53.552;10.092;2022-07-04T14:17:43;2.60;;;0.80;;
72284;SDS011;60220;53.552;10.092;2022-07-04T14:20:11;1.75;;;0.70;;
72284;SDS011;60220;53.552;10.092;2022-07-04T14:22:37;3.63;;;0.77;;
72284;SDS011;60220;53.552;10.092;2022-07-04T14:25:03;4.38;;;1.00;;
72284;SDS011;60220;53.552;10.092;2022-07-04T14:27:32;2.33;;;0.90;;
72284;SDS011;60220;53.552;10.092;2022-07-04T14:29:57;5.35;;;0.88;;
72284;SDS011;60220;53.552;10.092;2022-07-04T14:32:23;2.33;;;0.95;;
72284;SDS011;60220;53.552;10.092;2022-07-04T14:34:48;4.63;;;1.02;;
72284;SDS011;60220;53.552;10.092;2022-07-04T14:37:14;5.30;;;1.15;;
72284;SDS011;60220;53.552;10.092;2022-07-04T14:39:39;3.50;;;1.23;;
72284;SDS011;60220;53.552;10.092;2022-07-04T14:42:09;7.00;;;1.48;;
72284;SDS011;60220;53.552;10.092;2022-07-04T14:44:38;5.85;;;1.08;;
72284;SDS011;60220;53.552;10.092;2022-07-04T14:47:06;3.30;;;1.30;;
72284;SDS011;60220;53.552;10.092;2022-07-04T14:49:32;2.15;;;0.88;;
72284;SDS011;60220;53.552;10.092;2022-07-04T14:51:58;2.70;;;0.85;;
72284;SDS011;60220;53.552;10.092;2022-07-04T14:54:26;1.98;;;0.95;;
72284;SDS011;60220;53.552;10.092;2022-07-04T14:56:52;6.20;;;1.00;;
72284;SDS011;60220;53.552;10.092;2022-07-04T14:59:20;4.25;;;1.77;;
72284;SDS011;60220;53.552;10.092;2022-07-04T15:01:46;2.28;;;0.90;;
72284;SDS011;60220;53.552;10.092;2022-07-04T15:04:11;1.58;;;0.82;;
72284;SDS011;60220;53.552;10.092;2022-07-04T15:06:41;8.73;;;1.98;;
72284;SDS011;60220;53.552;10.092;2022-07-04T15:09:06;3.97;;;1.02;;
72284;SDS011;60220;53.552;10.092;2022-07-04T15:11:32;3.60;;;1.20;;
72284;SDS011;60220;53.552;10.092;2022-07-04T15:14:00;0.95;;;0.63;;